HKW weather

Edificio Viviendas 1 & 2
Miguel Hidalgo, Ciudad de México, Mexico

Public forecast

Using degrees Celsius for public forecast. Weather courtesy of forecast.io.

Closest aviation weather report (METAR) to Edificio Viviendas 1 & 2

Closest report is Licenciado Benito Juarez International Airport, 7.5 nm (13.9 km) E. Retrieved 2019/12/11 02:35 UTC (8 minutes ago):

MMMX 110235Z 11006KT 8SM SKC 17/04 A3032 NOSIG RMK HZY

Closest aviation forecast (TAF) to Edificio Viviendas 1 & 2

Closest forecast is Licenciado Benito Juarez International Airport, 7.5 nm (13.9 km) E. Retrieved 2019-12-11 00:07 UTC (3 hours ago):

TAF MMMX 102300Z 1100/1206 12008KT P6SM SCT020 SCT250 TX23/1121Z TN06/1112Z BECMG 1102/1103 04005KT FM110600 04005KT 6SM HZ SCT020 BECMG 1109/1110 5SM BR HZ BKN020 TEMPO 1112/1116 3SM BR HZ OVC010 FM111800 10006KT 6SM HZ SCT020 BECMG 1121/1122 10010KT P6SM FM120300 12005KT P6SM SCT020